(°F)
73°
70°
67°
64°
63°
62°
62°
(°F)
65°
64°
62°
60°
59°
59°
58°
WNW
WNW
WNW
W
W
WSW
SW
(mph)
11-22
8-17
5-15
4-12
4-10
4-8
4-5
(in)
0
0
0
0
0
0
0
(%)
2
2
1
1
1
6
8

Sun elevation

/ 3.4°
sun-icon
UV 6
04:32
20:32
Waning gibbous moon (240°)
01:00
08:05

METAR for 52.17°N 20.97°E (EPWA)

Time Conditions Temperature/
Dewpoint
Wind Visibility Weather Clouds Pressure Change Raw
VFR 73.4°F / 50°F 300º 9kt >10km - Clouds and Visibility OK 1014 No Significant change EPWA 201730Z 30009KT CAVOK 23/10 Q1014 NOSIG
VFR 75.2°F / 50°F 290º 11kt >10km - Clouds and Visibility OK 1014 No Significant change EPWA 201700Z 29011KT CAVOK 24/10 Q1014 NOSIG
VFR 75.2°F / 50°F 300º 14kt >10km - Clouds and Visibility OK 1014 No Significant change EPWA 201630Z 30014KT CAVOK 24/10 Q1014 NOSIG
VFR 77°F / 50°F 280º 13kt >10km - Clouds and Visibility OK 1014 No Significant change EPWA 201600Z 28013KT CAVOK 25/10 Q1014 NOSIG
VFR 77°F / 50°F 280º variable 250º to 310º 15kt >10km - Clouds and Visibility OK 1014 No Significant change EPWA 201530Z 28015KT 250V310 CAVOK 25/10 Q1014 NOSIG
VFR 78.8°F / 51.8°F 300º 18kt >10km - Clouds and Visibility OK 1014 No Significant change EPWA 201500Z 30018KT CAVOK 26/11 Q1014 NOSIG
VFR 78.8°F / 50°F 280º 20kt >10km - Clouds and Visibility OK 1014 No Significant change EPWA 201430Z 28020KT CAVOK 26/10 Q1014 NOSIG
VFR 78.8°F / 51.8°F 280º 18kt >10km - Clouds and Visibility OK 1015 No Significant change EPWA 201400Z 28018KT CAVOK 26/11 Q1015 NOSIG
VFR 78.8°F / 53.6°F 280º 17kt >10km - Clouds and Visibility OK 1015 No Significant change EPWA 201330Z 28017KT CAVOK 26/12 Q1015 NOSIG
VFR 80.6°F / 53.6°F 270º 18kt >10km - Clouds and Visibility OK 1015 No Significant change EPWA 201300Z 27018KT CAVOK 27/12 Q1015 NOSIG
VFR 80.6°F / 51.8°F 270º 18kt >10km - Clouds and Visibility OK 1015 No Significant change EPWA 201230Z 27018KT CAVOK 27/11 Q1015 NOSIG
VFR 80.6°F / 57.2°F 260º 15kt >10km - Clouds and Visibility OK 1015 No Significant change EPWA 201200Z 26015KT CAVOK 27/14 Q1015 NOSIG
VFR 80.6°F / 55.4°F 250º 15kt >10km - Clouds and Visibility OK 1015 No Significant change EPWA 201130Z 25015KT CAVOK 27/13 Q1015 NOSIG
VFR 78.8°F / 53.6°F 260º variable 230º to 290º 13kt >10km - Clouds and Visibility OK 1016 No Significant change EPWA 201100Z 26013KT 230V290 CAVOK 26/12 Q1016 NOSIG
VFR 78.8°F / 53.6°F 260º 13kt >10km - Clouds and Visibility OK 1016 No Significant change EPWA 201030Z 26013KT CAVOK 26/12 Q1016 NOSIG
VFR 77°F / 50°F 260º variable 200º to 290º 9kt >10km - Clouds and Visibility OK 1016 No Significant change EPWA 201000Z 26009KT 200V290 CAVOK 25/10 Q1016 NOSIG
VFR 75.2°F / 50°F 250º variable 200º to 280º 9kt >10km - Clouds and Visibility OK 1016 No Significant change EPWA 200930Z 25009KT 200V280 CAVOK 24/10 Q1016 NOSIG
VFR 73.4°F / 50°F 250º variable 220º to 290º 8kt >10km - Clouds and Visibility OK 1016 No Significant change EPWA 200900Z 25008KT 220V290 CAVOK 23/10 Q1016 NOSIG
VFR 71.6°F / 50°F 260º variable 230º to 290º 9kt >10km - Clouds and Visibility OK 1017 No Significant change EPWA 200830Z 26009KT 230V290 CAVOK 22/10 Q1017 NOSIG
VFR 69.8°F / 48.2°F 260º 7kt >10km - Clouds and Visibility OK 1017 No Significant change EPWA 200800Z 26007KT CAVOK 21/09 Q1017 NOSIG
VFR 68°F / 46.4°F 260º variable 230º to 290º 9kt >10km - Clouds and Visibility OK 1017 No Significant change EPWA 200730Z 26009KT 230V290 CAVOK 20/08 Q1017 NOSIG
VFR 68°F / 44.6°F 250º 8kt >10km - Clouds and Visibility OK 1017 No Significant change EPWA 200700Z 25008KT CAVOK 20/07 Q1017 NOSIG
VFR 66.2°F / 44.6°F 250º 9kt >10km - Clouds and Visibility OK 1017 No Significant change EPWA 200630Z 25009KT CAVOK 19/07 Q1017 NOSIG
VFR 64.4°F / 46.4°F 240º 5kt >10km - Clouds and Visibility OK 1017 No Significant change EPWA 200600Z 24005KT CAVOK 18/08 Q1017 NOSIG

VFR

73.4°F / 50°F

[More]
Wind 300º 9kt
Visibility >10km
Weather -
Clouds Clouds and Visibility OK
Pressure 1014
Change No Significant change
Raw EPWA 201730Z 30009KT CAVOK 23/10 Q1014 NOSIG

VFR

75.2°F / 50°F

[More]
Wind 290º 11kt
Visibility >10km
Weather -
Clouds Clouds and Visibility OK
Pressure 1014
Change No Significant change
Raw EPWA 201700Z 29011KT CAVOK 24/10 Q1014 NOSIG

VFR

75.2°F / 50°F

[More]
Wind 300º 14kt
Visibility >10km
Weather -
Clouds Clouds and Visibility OK
Pressure 1014
Change No Significant change
Raw EPWA 201630Z 30014KT CAVOK 24/10 Q1014 NOSIG

VFR

77°F / 50°F

[More]
Wind 280º 13kt
Visibility >10km
Weather -
Clouds Clouds and Visibility OK
Pressure 1014
Change No Significant change
Raw EPWA 201600Z 28013KT CAVOK 25/10 Q1014 NOSIG

VFR

77°F / 50°F

[More]
Wind 280º variable 250º to 310º 15kt
Visibility >10km
Weather -
Clouds Clouds and Visibility OK
Pressure 1014
Change No Significant change
Raw EPWA 201530Z 28015KT 250V310 CAVOK 25/10 Q1014 NOSIG

VFR

78.8°F / 51.8°F

[More]
Wind 300º 18kt
Visibility >10km
Weather -
Clouds Clouds and Visibility OK
Pressure 1014
Change No Significant change
Raw EPWA 201500Z 30018KT CAVOK 26/11 Q1014 NOSIG

VFR

78.8°F / 50°F

[More]
Wind 280º 20kt
Visibility >10km
Weather -
Clouds Clouds and Visibility OK
Pressure 1014
Change No Significant change
Raw EPWA 201430Z 28020KT CAVOK 26/10 Q1014 NOSIG

VFR

78.8°F / 51.8°F

[More]
Wind 280º 18kt
Visibility >10km
Weather -
Clouds Clouds and Visibility OK
Pressure 1015
Change No Significant change
Raw EPWA 201400Z 28018KT CAVOK 26/11 Q1015 NOSIG

VFR

78.8°F / 53.6°F

[More]
Wind 280º 17kt
Visibility >10km
Weather -
Clouds Clouds and Visibility OK
Pressure 1015
Change No Significant change
Raw EPWA 201330Z 28017KT CAVOK 26/12 Q1015 NOSIG

VFR

80.6°F / 53.6°F

[More]
Wind 270º 18kt
Visibility >10km
Weather -
Clouds Clouds and Visibility OK
Pressure 1015
Change No Significant change
Raw EPWA 201300Z 27018KT CAVOK 27/12 Q1015 NOSIG

VFR

80.6°F / 51.8°F

[More]
Wind 270º 18kt
Visibility >10km
Weather -
Clouds Clouds and Visibility OK
Pressure 1015
Change No Significant change
Raw EPWA 201230Z 27018KT CAVOK 27/11 Q1015 NOSIG

VFR

80.6°F / 57.2°F

[More]
Wind 260º 15kt
Visibility >10km
Weather -
Clouds Clouds and Visibility OK
Pressure 1015
Change No Significant change
Raw EPWA 201200Z 26015KT CAVOK 27/14 Q1015 NOSIG

VFR

80.6°F / 55.4°F

[More]
Wind 250º 15kt
Visibility >10km
Weather -
Clouds Clouds and Visibility OK
Pressure 1015
Change No Significant change
Raw EPWA 201130Z 25015KT CAVOK 27/13 Q1015 NOSIG

VFR

78.8°F / 53.6°F

[More]
Wind 260º variable 230º to 290º 13kt
Visibility >10km
Weather -
Clouds Clouds and Visibility OK
Pressure 1016
Change No Significant change
Raw EPWA 201100Z 26013KT 230V290 CAVOK 26/12 Q1016 NOSIG

VFR

78.8°F / 53.6°F

[More]
Wind 260º 13kt
Visibility >10km
Weather -
Clouds Clouds and Visibility OK
Pressure 1016
Change No Significant change
Raw EPWA 201030Z 26013KT CAVOK 26/12 Q1016 NOSIG

VFR

77°F / 50°F

[More]
Wind 260º variable 200º to 290º 9kt
Visibility >10km
Weather -
Clouds Clouds and Visibility OK
Pressure 1016
Change No Significant change
Raw EPWA 201000Z 26009KT 200V290 CAVOK 25/10 Q1016 NOSIG

VFR

75.2°F / 50°F

[More]
Wind 250º variable 200º to 280º 9kt
Visibility >10km
Weather -
Clouds Clouds and Visibility OK
Pressure 1016
Change No Significant change
Raw EPWA 200930Z 25009KT 200V280 CAVOK 24/10 Q1016 NOSIG

VFR

73.4°F / 50°F

[More]
Wind 250º variable 220º to 290º 8kt
Visibility >10km
Weather -
Clouds Clouds and Visibility OK
Pressure 1016
Change No Significant change
Raw EPWA 200900Z 25008KT 220V290 CAVOK 23/10 Q1016 NOSIG

VFR

71.6°F / 50°F

[More]
Wind 260º variable 230º to 290º 9kt
Visibility >10km
Weather -
Clouds Clouds and Visibility OK
Pressure 1017
Change No Significant change
Raw EPWA 200830Z 26009KT 230V290 CAVOK 22/10 Q1017 NOSIG

VFR

69.8°F / 48.2°F

[More]
Wind 260º 7kt
Visibility >10km
Weather -
Clouds Clouds and Visibility OK
Pressure 1017
Change No Significant change
Raw EPWA 200800Z 26007KT CAVOK 21/09 Q1017 NOSIG

VFR

68°F / 46.4°F

[More]
Wind 260º variable 230º to 290º 9kt
Visibility >10km
Weather -
Clouds Clouds and Visibility OK
Pressure 1017
Change No Significant change
Raw EPWA 200730Z 26009KT 230V290 CAVOK 20/08 Q1017 NOSIG

VFR

68°F / 44.6°F

[More]
Wind 250º 8kt
Visibility >10km
Weather -
Clouds Clouds and Visibility OK
Pressure 1017
Change No Significant change
Raw EPWA 200700Z 25008KT CAVOK 20/07 Q1017 NOSIG

VFR

66.2°F / 44.6°F

[More]
Wind 250º 9kt
Visibility >10km
Weather -
Clouds Clouds and Visibility OK
Pressure 1017
Change No Significant change
Raw EPWA 200630Z 25009KT CAVOK 19/07 Q1017 NOSIG

VFR

64.4°F / 46.4°F

[More]
Wind 240º 5kt
Visibility >10km
Weather -
Clouds Clouds and Visibility OK
Pressure 1017
Change No Significant change
Raw EPWA 200600Z 24005KT CAVOK 18/08 Q1017 NOSIG

TAF for 52.17°N 20.97°E (EPWA)

From till


From till Wind 290º 10kt. Visibility 10km or more. Nil Significant Cloud.
Becoming from till Wind variable 2kt. Visibility 10km or more. Nil Significant Cloud.
Temporarly from till Wind variable 20kt. Gust 35kt. Visibility 3000m. Thunderstorm Rain . Scattered Clouds 1000ft. Broken Clouds 3000ft.
Becoming from till Wind 270º 17kt. Visibility 10km or more. Nil Significant Cloud.
Temporarly from till Wind 280º 20kt. Gust 38kt. Light Showers Rain . Broken Clouds 3500ft.
With 40% probability, Temporarly from till Wind 290º 25kt. Gust 48kt.

Raw: TAF EPWA 201730Z 2018/2118 29010KT CAVOK BECMG 2018/2021 VRB02KT TEMPO 2101/2105 VRB20G35KT 3000 TSRA SCT010 BKN030CB BECMG 2105/2107 27017KT TEMPO 2105/2118 28020G38KT -SHRA BKN035CB PROB40 TEMPO 2107/2111 29025G48KT

Radar and precipitation nowcast for 52.17°N 20.97°E

Drizzle
Light
Moderate
Heavy
Very Heavy
Hail

The location marker is placed on 52.17°N 20.97°E. This animation shows the precipitation radar for the last hour, as well as a 1h forecast. Drizzle or light snow fall might be invisible for the radar. Precipitation intensity is colour coded, ranging from light blue to orange.

Current satellite and rain images for 52.17°N 20.97°E

The location marker is placed on 52.17°N 20.97°E. [More]

The real-time satellite image combines visible light during daytime with infrared radiation during nighttime. At night, the image is not dark as infrared radiation can detect temperature differences. Unfortunately, low clouds and fog are difficult to distinguish from ground temperatures and thus can be almost invisible during the night. Meteosat satellite images for Europe are updated in real-time every 5 minutes. GOES-16/GOES-17 (North & South America) and Himawari (Asia) images update every 10 minutes.

Precipitation is estimated from radar and satellites. At night precipitation estimates from satellites are less accurate than during daytime. Orange crosses mark places where lightning was detected (over Europe).

Copyright 2022 EUMETSAT / meteoblue. Lightning data provided by nowcast.

Back to top